Time;durP1;ratioP1;P1;durP2;ratioP2;P2;SDS_P1;SDS_P2;PMS_P1;PMS_P2;Temp;Humidity;BMP_temperature;BMP_pressure;BME280_temperature;BME280_humidity;BME280_pressure;Samples;Min_cycle;Max_cycle;Signal;HPM_P1;HPM_P2
2023/02/09 00:01:02;;;;;;;1999.90;999.90;;;-3.40;99.90;;;;;;5110275;28;20453;-66
2023/02/09 00:03:29;;;;;;;1999.90;999.90;;;-3.30;99.90;;;;;;5110402;28;20892;-66
2023/02/09 00:05:58;;;;;;;1999.90;999.90;;;-3.40;99.90;;;;;;5111080;28;20441;-66
2023/02/09 00:08:25;;;;;;;1999.90;999.90;;;-3.40;99.90;;;;;;5110634;28;20447;-67
2023/02/09 00:10:52;;;;;;;1999.90;999.90;;;-3.40;99.90;;;;;;5111247;28;20445;-66
2023/02/09 00:13:24;;;;;;;1999.90;999.90;;;-3.40;99.90;;;;;;5111392;28;20454;-65
2023/02/09 00:15:53;;;;;;;1999.90;999.90;;;-3.40;99.90;;;;;;5112107;28;20459;-66
2023/02/09 00:18:22;;;;;;;1999.90;999.90;;;-3.50;99.90;;;;;;5111455;28;20473;-66
2023/02/09 00:20:55;;;;;;;1999.90;999.90;;;-3.50;99.90;;;;;;5112133;28;20533;-65
2023/02/09 00:23:23;;;;;;;1999.90;999.90;;;-3.40;99.90;;;;;;5112086;28;20445;-66
2023/02/09 00:25:50;;;;;;;1999.90;999.90;;;-3.50;99.90;;;;;;5112138;28;20462;-66
2023/02/09 00:28:17;;;;;;;1999.90;999.90;;;-3.50;99.90;;;;;;5112351;28;20445;-65
2023/02/09 00:30:44;;;;;;;1999.90;999.90;;;-3.50;99.90;;;;;;5111687;28;20452;-65
2023/02/09 00:33:12;;;;;;;1999.90;999.90;;;-3.60;99.90;;;;;;5111238;28;21029;-66
2023/02/09 00:35:40;;;;;;;1999.90;999.90;;;-3.70;99.90;;;;;;5110369;28;20449;-66
2023/02/09 00:38:07;;;;;;;1999.90;999.90;;;-3.80;99.90;;;;;;5111624;28;20479;-66
2023/02/09 00:40:34;;;;;;;1999.90;999.90;;;-3.90;99.90;;;;;;5111367;28;21258;-65
2023/02/09 00:43:01;;;;;;;1999.90;999.90;;;-4.00;99.90;;;;;;5111685;28;20445;-66
2023/02/09 00:45:28;;;;;;;1999.90;999.90;;;-4.00;99.90;;;;;;5111661;28;20449;-66
2023/02/09 00:47:55;;;;;;;1999.90;999.90;;;-4.00;99.90;;;;;;5111716;28;20560;-64
2023/02/09 00:50:23;;;;;;;1999.90;999.90;;;-4.10;99.90;;;;;;5111911;28;20448;-65
2023/02/09 00:52:49;;;;;;;1999.90;999.90;;;-4.10;99.90;;;;;;5111660;28;20452;-65
2023/02/09 00:55:17;;;;;;;1999.90;999.90;;;-4.10;99.90;;;;;;5111453;28;21043;-66
2023/02/09 00:57:44;;;;;;;1999.90;999.90;;;-4.20;99.90;;;;;;5111784;28;20461;-66
2023/02/09 01:00:13;;;;;;;1999.90;999.90;;;-4.10;99.90;;;;;;5110444;28;20464;-66
2023/02/09 01:02:40;;;;;;;1999.90;999.90;;;-4.10;99.90;;;;;;5110870;28;20460;-66
2023/02/09 01:05:08;;;;;;;1999.90;999.90;;;-4.10;99.90;;;;;;5111097;28;20445;-66
2023/02/09 01:07:37;;;;;;;1999.90;999.90;;;-4.10;99.90;;;;;;5111478;28;20457;-65
2023/02/09 01:10:04;;;;;;;1999.90;999.90;;;-4.20;99.90;;;;;;5110799;28;20448;-65
2023/02/09 01:12:31;;;;;;;1999.90;999.90;;;-4.10;99.90;;;;;;5110380;28;21179;-65
2023/02/09 01:15:00;;;;;;;1999.90;999.90;;;-4.10;99.90;;;;;;5110512;28;20448;-67
2023/02/09 01:17:27;;;;;;;1999.90;999.90;;;-4.00;99.90;;;;;;5109722;28;21084;-65
2023/02/09 01:19:55;;;;;;;1999.90;999.90;;;-4.00;99.90;;;;;;5111193;28;20512;-65
2023/02/09 01:22:22;;;;;;;1999.90;999.90;;;-3.90;99.90;;;;;;5110943;28;21013;-67
2023/02/09 01:24:50;;;;;;;1999.90;999.90;;;-3.80;99.90;;;;;;5110835;28;20943;-67
2023/02/09 01:27:17;;;;;;;1999.90;999.90;;;-3.80;99.90;;;;;;5111263;28;20477;-65
2023/02/09 01:29:44;;;;;;;1999.90;999.90;;;-3.90;99.90;;;;;;5110436;28;20449;-67
2023/02/09 01:32:11;;;;;;;1999.90;999.90;;;-3.90;99.90;;;;;;5111250;28;20449;-66
2023/02/09 01:34:38;;;;;;;1999.90;999.90;;;-4.00;99.90;;;;;;5110606;28;20446;-65
2023/02/09 01:37:05;;;;;;;1999.90;999.90;;;-4.10;99.90;;;;;;5111078;28;20469;-67
2023/02/09 01:39:32;;;;;;;1999.90;999.90;;;-4.10;99.90;;;;;;5110588;28;20476;-66
2023/02/09 01:42:00;;;;;;;1999.90;999.90;;;-4.10;99.90;;;;;;5110626;28;20446;-65
2023/02/09 01:45:05;;;;;;;1999.90;999.90;;;-4.10;99.90;;;;;;5110137;28;20442;-65
2023/02/09 01:47:33;;;;;;;1999.90;999.90;;;-4.20;99.90;;;;;;5110200;28;20484;-65
2023/02/09 01:49:59;;;;;;;1999.90;999.90;;;-4.20;99.90;;;;;;5110716;28;20839;-65
2023/02/09 01:52:29;;;;;;;1999.90;999.90;;;-4.30;99.90;;;;;;5110006;28;20445;-66
2023/02/09 01:54:59;;;;;;;1999.90;999.90;;;-4.30;99.90;;;;;;5110787;28;20445;-66
2023/02/09 01:57:31;;;;;;;1999.90;999.90;;;-4.30;99.90;;;;;;5110266;28;20465;-65
2023/02/09 02:00:03;;;;;;;1999.90;999.90;;;-4.40;99.90;;;;;;5110076;27;20485;-65
2023/02/09 02:02:30;;;;;;;1999.90;999.90;;;-4.40;99.90;;;;;;5110151;28;20986;-65
2023/02/09 02:04:57;;;;;;;1999.90;999.90;;;-4.30;99.90;;;;;;5110230;28;20445;-67
2023/02/09 02:07:29;;;;;;;1999.90;999.90;;;-4.30;99.90;;;;;;5110312;28;20997;-66
2023/02/09 02:09:56;;;;;;;1999.90;999.90;;;-4.30;99.90;;;;;;5110135;28;20441;-65
2023/02/09 02:12:24;;;;;;;1999.90;999.90;;;-4.20;99.90;;;;;;5109003;28;20853;-66
2023/02/09 02:14:52;;;;;;;1999.90;999.90;;;-4.20;99.90;;;;;;5109907;28;20464;-66
2023/02/09 02:17:31;;;;;;;1999.90;999.90;;;-4.30;99.90;;;;;;5110037;28;20461;-65
2023/02/09 02:20:33;;;;;;;1999.90;999.90;;;-4.30;99.90;;;;;;5110294;28;20477;-65
2023/02/09 02:23:09;;;;;;;1999.90;999.90;;;-4.40;99.90;;;;;;5109653;28;20444;-66
2023/02/09 02:26:26;;;;;;;1999.90;999.90;;;-4.40;99.90;;;;;;5109632;28;20449;-66
2023/02/09 02:29:26;;;;;;;1999.90;999.90;;;-4.40;99.90;;;;;;5003360;28;20444;-66
2023/02/09 02:32:15;;;;;;;1999.90;999.90;;;-4.50;99.90;;;;;;5102600;28;20441;-65
2023/02/09 02:34:46;;;;;;;1999.90;999.90;;;-4.40;99.90;;;;;;5109234;28;20433;-66
2023/02/09 02:37:26;;;;;;;1999.90;999.90;;;-4.50;99.90;;;;;;5110346;28;20837;-65
2023/02/09 02:40:03;;;;;;;1999.90;999.90;;;-4.40;99.90;;;;;;5110025;28;20492;-66
2023/02/09 02:42:50;;;;;;;1999.90;999.90;;;-4.50;99.90;;;;;;5110503;28;20441;-62
2023/02/09 02:45:30;;;;;;;1999.90;999.90;;;-4.50;99.90;;;;;;5109373;28;20445;-65
2023/02/09 02:48:05;;;;;;;1999.90;999.90;;;-4.50;99.90;;;;;;5109692;28;20468;-66
2023/02/09 02:50:36;;;;;;;1999.90;999.90;;;-4.60;99.90;;;;;;5110185;28;21002;-65
2023/02/09 02:53:06;;;;;;;1999.90;999.90;;;-4.70;99.90;;;;;;5109819;28;20471;-65
2023/02/09 02:55:35;;;;;;;1999.90;999.90;;;-4.80;99.90;;;;;;5110057;28;20441;-65
2023/02/09 02:58:07;;;;;;;1999.90;999.90;;;-4.70;99.90;;;;;;5110925;28;20465;-66
2023/02/09 03:00:39;;;;;;;1999.90;999.90;;;-4.60;99.90;;;;;;5112631;28;20508;-65
2023/02/09 03:03:10;;;;;;;1999.90;999.90;;;-4.60;99.90;;;;;;5109064;28;20472;-65
2023/02/09 03:05:38;;;;;;;1999.90;999.90;;;-4.60;99.90;;;;;;5110629;28;20439;-65
2023/02/09 03:08:05;;;;;;;1999.90;999.90;;;-4.60;99.90;;;;;;5109484;28;20476;-66
2023/02/09 03:10:34;;;;;;;1999.90;999.90;;;-4.50;99.90;;;;;;5109819;28;20437;-65
2023/02/09 03:13:24;;;;;;;1999.90;999.90;;;-4.50;99.90;;;;;;5109501;28;20543;-65
2023/02/09 03:19:34;;;;;;;1999.90;999.90;;;-4.50;99.90;;;;;;5109243;28;20464;-65
2023/02/09 03:22:07;;;;;;;1999.90;999.90;;;-4.60;99.90;;;;;;5089252;28;20457;-65
2023/02/09 03:24:40;;;;;;;1999.90;999.90;;;-4.60;99.90;;;;;;5088807;28;20453;-65
2023/02/09 03:27:14;;;;;;;1999.90;999.90;;;-4.70;99.90;;;;;;5089376;28;20479;-65
2023/02/09 03:29:43;;;;;;;1999.90;999.90;;;-4.80;99.90;;;;;;5088983;28;20932;-65
2023/02/09 03:32:11;;;;;;;1999.90;999.90;;;-4.80;99.90;;;;;;5089051;28;20829;-66
2023/02/09 03:34:40;;;;;;;1999.90;999.90;;;-4.80;99.90;;;;;;5096333;28;20453;-66
2023/02/09 03:37:06;;;;;;;1999.90;999.90;;;-4.70;99.90;;;;;;5108721;28;20461;-65
2023/02/09 03:39:33;;;;;;;1999.90;999.90;;;-4.60;99.90;;;;;;5108848;28;21085;-65
2023/02/09 03:42:00;;;;;;;1999.90;999.90;;;-4.70;99.90;;;;;;5108717;28;20442;-65
2023/02/09 03:44:27;;;;;;;1999.90;999.90;;;-4.70;99.90;;;;;;5108435;28;20441;-65
2023/02/09 03:46:55;;;;;;;1999.90;999.90;;;-4.70;99.90;;;;;;5108747;28;20836;-65
2023/02/09 03:49:23;;;;;;;1999.90;999.90;;;-4.80;99.90;;;;;;5107773;28;20445;-66
2023/02/09 03:51:52;;;;;;;1999.90;999.90;;;-4.80;99.90;;;;;;5108952;28;20445;-66
2023/02/09 03:54:18;;;;;;;1999.90;999.90;;;-4.80;99.90;;;;;;5108416;28;20441;-65
2023/02/09 03:56:45;;;;;;;1999.90;999.90;;;-4.70;99.90;;;;;;5109024;28;20465;-66
2023/02/09 03:59:12;;;;;;;1999.90;999.90;;;-4.70;99.90;;;;;;5108058;28;20476;-66
2023/02/09 04:01:39;;;;;;;1999.90;999.90;;;-4.80;99.90;;;;;;5108904;28;20456;-65
2023/02/09 04:04:05;;;;;;;1999.90;999.90;;;-4.90;99.90;;;;;;5108185;28;20449;-66
2023/02/09 04:06:34;;;;;;;1999.90;999.90;;;-4.90;99.90;;;;;;5108696;28;21025;-65
2023/02/09 04:09:03;;;;;;;1999.90;999.90;;;-5.00;99.90;;;;;;5109104;28;20449;-66
2023/02/09 04:11:31;;;;;;;1999.90;999.90;;;-4.90;99.90;;;;;;5108197;28;20449;-66
2023/02/09 04:13:57;;;;;;;1999.90;999.90;;;-4.80;99.90;;;;;;5108003;28;20954;-65
2023/02/09 04:16:24;;;;;;;1999.90;999.90;;;-4.80;99.90;;;;;;5107486;28;20469;-66
2023/02/09 04:18:51;;;;;;;1999.90;999.90;;;-4.80;99.90;;;;;;5108333;28;20444;-65
2023/02/09 04:21:18;;;;;;;1999.90;999.90;;;-4.80;99.90;;;;;;5108908;28;20445;-66
2023/02/09 04:23:45;;;;;;;1999.90;999.90;;;-4.80;99.90;;;;;;5108170;28;20456;-67
2023/02/09 04:26:13;;;;;;;1999.90;999.90;;;-4.80;99.90;;;;;;5107913;28;20461;-66
2023/02/09 04:28:39;;;;;;;1999.90;999.90;;;-4.80;99.90;;;;;;5108053;28;20449;-66
2023/02/09 04:31:06;;;;;;;1999.90;999.90;;;-4.90;99.90;;;;;;5108200;28;20476;-66
2023/02/09 04:33:33;;;;;;;1999.90;999.90;;;-4.90;99.90;;;;;;5107923;28;20452;-65
2023/02/09 04:36:00;;;;;;;1999.90;999.90;;;-5.00;99.90;;;;;;5111481;28;20445;-66
2023/02/09 04:38:27;;;;;;;1999.90;999.90;;;-5.00;99.90;;;;;;5112375;28;20452;-65
2023/02/09 04:40:55;;;;;;;1999.90;999.90;;;-5.00;99.90;;;;;;5111709;28;20473;-66
2023/02/09 04:43:23;;;;;;;1999.90;999.90;;;-5.00;99.90;;;;;;5111733;28;20433;-66
2023/02/09 04:45:50;;;;;;;1999.90;999.90;;;-5.00;99.90;;;;;;5110707;28;20887;-66
2023/02/09 04:48:20;;;;;;;1999.90;999.90;;;-4.90;99.90;;;;;;5110896;28;20458;-67
2023/02/09 04:50:47;;;;;;;1999.90;999.90;;;-4.90;99.90;;;;;;5110669;28;20441;-66
2023/02/09 04:53:14;;;;;;;1999.90;999.90;;;-4.90;99.90;;;;;;5110440;28;20445;-66
2023/02/09 04:55:43;;;;;;;1999.90;999.90;;;-5.00;99.90;;;;;;5110538;28;20445;-66
2023/02/09 05:00:57;;;;;;;1999.90;999.90;;;-5.10;99.90;;;;;;5110381;28;20565;-66
2023/02/09 05:03:25;;;;;;;1999.90;999.90;;;-5.10;99.90;;;;;;5110109;28;20820;-66
2023/02/09 05:05:54;;;;;;;1999.90;999.90;;;-5.10;99.90;;;;;;5111479;28;20441;-66
2023/02/09 05:08:21;;;;;;;1999.90;999.90;;;-4.90;99.90;;;;;;5111167;28;20449;-65
2023/02/09 05:10:48;;;;;;;1999.90;999.90;;;-5.00;99.90;;;;;;5111519;28;20437;-65
2023/02/09 05:13:15;;;;;;;1999.90;999.90;;;-5.00;99.90;;;;;;5110990;28;20450;-65
2023/02/09 05:15:41;;;;;;;1999.90;999.90;;;-4.80;99.90;;;;;;5111301;28;20464;-62
2023/02/09 05:18:10;;;;;;;1999.90;999.90;;;-4.70;99.90;;;;;;5111511;28;20465;-65
2023/02/09 05:20:37;;;;;;;1999.90;999.90;;;-4.70;99.90;;;;;;5111087;28;20477;-66
2023/02/09 05:23:04;;;;;;;1999.90;999.90;;;-4.70;99.90;;;;;;5110326;28;20445;-61
2023/02/09 05:25:31;;;;;;;1999.90;999.90;;;-4.70;99.90;;;;;;5111161;28;20471;-66
2023/02/09 05:27:58;;;;;;;1999.90;999.90;;;-4.70;99.90;;;;;;5111054;28;20475;-64
2023/02/09 05:30:25;;;;;;;1999.90;999.90;;;-4.70;99.90;;;;;;5111200;28;20446;-66
2023/02/09 05:32:52;;;;;;;1999.90;999.90;;;-4.80;99.90;;;;;;5110171;28;20445;-66
2023/02/09 05:35:20;;;;;;;1999.90;999.90;;;-4.80;99.90;;;;;;5111021;28;20460;-66
2023/02/09 05:37:47;;;;;;;1999.90;999.90;;;-4.90;99.90;;;;;;5108699;28;20473;-67
2023/02/09 05:40:14;;;;;;;1999.90;999.90;;;-4.90;99.90;;;;;;5108982;28;20485;-67
2023/02/09 05:42:41;;;;;;;1999.90;999.90;;;-4.90;99.90;;;;;;5108921;28;21002;-68
2023/02/09 05:45:09;;;;;;;1999.90;999.90;;;-4.90;99.90;;;;;;5108926;28;20438;-65
2023/02/09 05:47:36;;;;;;;1999.90;999.90;;;-4.90;99.90;;;;;;5109227;28;20473;-66
2023/02/09 05:50:02;;;;;;;1999.90;999.90;;;-4.90;99.90;;;;;;5108860;28;20454;-65
2023/02/09 05:52:30;;;;;;;1999.90;999.90;;;-4.80;99.90;;;;;;5110147;28;20442;-66
2023/02/09 05:54:57;;;;;;;1999.90;999.90;;;-4.80;99.90;;;;;;5110697;28;20441;-67
2023/02/09 05:57:24;;;;;;;1999.90;999.90;;;-4.70;99.90;;;;;;5110387;28;20468;-64
2023/02/09 05:59:51;;;;;;;1999.90;999.90;;;-4.80;99.90;;;;;;5110320;28;20484;-66
2023/02/09 06:02:17;;;;;;;1999.90;999.90;;;-4.80;99.90;;;;;;5110032;28;20457;-65
2023/02/09 06:04:44;;;;;;;1999.90;999.90;;;-5.00;99.90;;;;;;5110453;28;20449;-65
2023/02/09 06:07:11;;;;;;;1999.90;999.90;;;-5.00;99.90;;;;;;5110456;28;20821;-65
2023/02/09 06:09:39;;;;;;;1999.90;999.90;;;-4.90;99.90;;;;;;5110155;28;20437;-64
2023/02/09 06:12:06;;;;;;;1999.90;999.90;;;-5.00;99.90;;;;;;5110399;28;20458;-66
2023/02/09 06:14:33;;;;;;;1999.90;999.90;;;-5.00;99.90;;;;;;5109323;28;20452;-66
2023/02/09 06:16:59;;;;;;;1999.90;999.90;;;-5.00;99.90;;;;;;5110148;28;20472;-66
2023/02/09 06:19:26;;;;;;;1999.90;999.90;;;-4.90;99.90;;;;;;5109565;28;20758;-66
2023/02/09 06:21:53;;;;;;;1999.90;999.90;;;-4.90;99.90;;;;;;5110157;28;20814;-65
2023/02/09 06:24:19;;;;;;;1999.90;999.90;;;-4.90;99.90;;;;;;5110250;28;20460;-66
2023/02/09 06:26:48;;;;;;;1999.90;999.90;;;-4.90;99.90;;;;;;5109198;28;21000;-65
2023/02/09 06:29:14;;;;;;;1999.90;999.90;;;-4.90;99.90;;;;;;5110242;28;20445;-66
2023/02/09 06:31:41;;;;;;;1999.90;999.90;;;-5.00;99.90;;;;;;5107972;27;20460;-65
2023/02/09 06:34:08;;;;;;;1999.90;999.90;;;-5.00;99.90;;;;;;5106080;27;20461;-66
2023/02/09 06:36:35;;;;;;;1999.90;999.90;;;-5.00;99.90;;;;;;5109649;28;20487;-64
2023/02/09 06:39:02;;;;;;;1999.90;999.90;;;-5.00;99.90;;;;;;5109658;28;20460;-65
2023/02/09 06:41:28;;;;;;;1999.90;999.90;;;-5.10;99.90;;;;;;5109380;28;20480;-65
2023/02/09 06:43:56;;;;;;;1999.90;999.90;;;-5.10;99.90;;;;;;5109356;28;20456;-65
2023/02/09 06:46:23;;;;;;;1999.90;999.90;;;-5.00;99.90;;;;;;5107272;28;20473;-65
2023/02/09 06:48:50;;;;;;;1999.90;999.90;;;-4.90;99.90;;;;;;5109269;28;21101;-65
2023/02/09 06:51:17;;;;;;;1999.90;999.90;;;-4.90;99.90;;;;;;5109277;28;20445;-66
2023/02/09 06:53:44;;;;;;;1999.90;999.90;;;-4.90;99.90;;;;;;5109178;28;21255;-65
2023/02/09 06:56:12;;;;;;;1999.90;999.90;;;-5.00;99.90;;;;;;5108195;28;20470;-66
2023/02/09 06:58:39;;;;;;;1999.90;999.90;;;-5.00;99.90;;;;;;5108238;28;20450;-64
2023/02/09 07:01:09;;;;;;;1999.90;999.90;;;-5.00;99.90;;;;;;5108890;28;20477;-65
2023/02/09 07:03:37;;;;;;;1999.90;999.90;;;-5.00;99.90;;;;;;5108952;28;20465;-65
2023/02/09 07:06:06;;;;;;;1999.90;999.90;;;-5.00;99.90;;;;;;5108805;28;20458;-66
2023/02/09 07:08:33;;;;;;;1999.90;999.90;;;-5.00;99.90;;;;;;5109613;28;20464;-64
2023/02/09 07:11:02;;;;;;;1999.90;999.90;;;-4.90;99.90;;;;;;5110388;28;20445;-66
2023/02/09 07:13:30;;;;;;;1999.90;999.90;;;-4.80;99.90;;;;;;5110044;28;20456;-64
2023/02/09 07:16:00;;;;;;;1999.90;999.90;;;-4.70;99.90;;;;;;5110360;28;20970;-64
2023/02/09 07:18:28;;;;;;;1999.90;999.90;;;-4.70;99.90;;;;;;5109288;28;20445;-64
2023/02/09 07:20:56;;;;;;;1999.90;999.90;;;-4.70;99.90;;;;;;5109054;28;20492;-66
2023/02/09 07:23:23;;;;;;;1999.90;999.90;;;-4.80;99.90;;;;;;5108227;28;20452;-61
2023/02/09 07:25:50;;;;;;;1999.90;999.90;;;-4.70;99.90;;;;;;5102576;28;20469;-66
2023/02/09 07:28:19;;;;;;;1999.90;999.90;;;-4.60;99.90;;;;;;5109152;28;20445;-65
2023/02/09 07:30:47;;;;;;;1999.90;999.90;;;-4.60;99.90;;;;;;5108661;28;20446;-66
2023/02/09 07:33:14;;;;;;;1999.90;999.90;;;-4.60;99.90;;;;;;5108570;28;20446;-65
2023/02/09 07:35:42;;;;;;;1999.90;999.90;;;-4.50;99.90;;;;;;5108992;28;20453;-65
2023/02/09 07:38:09;;;;;;;1999.90;999.90;;;-4.40;99.90;;;;;;5108847;28;20468;-64
2023/02/09 07:40:36;;;;;;;1999.90;999.90;;;-4.20;99.90;;;;;;5108907;28;20480;-66
2023/02/09 07:43:03;;;;;;;1999.90;999.90;;;-4.10;99.90;;;;;;5110598;28;20449;-66
2023/02/09 07:45:30;;;;;;;1999.90;999.90;;;-4.10;99.90;;;;;;5113194;28;20443;-67
2023/02/09 07:47:57;;;;;;;1999.90;999.90;;;-4.00;99.90;;;;;;5129170;28;20456;-64
2023/02/09 07:50:24;;;;;;;1999.90;999.90;;;-3.90;99.90;;;;;;5114834;28;20445;-66
2023/02/09 07:52:54;;;;;;;1999.90;999.90;;;-3.70;99.90;;;;;;5108026;28;20454;-66
2023/02/09 07:55:21;;;;;;;1999.90;999.90;;;-3.60;99.90;;;;;;5108680;28;20523;-64
2023/02/09 07:57:47;;;;;;;1999.90;999.90;;;-3.50;99.90;;;;;;5102256;28;20481;-65
2023/02/09 08:00:16;;;;;;;1999.90;999.90;;;-3.40;99.90;;;;;;5101921;28;20481;-64
2023/02/09 08:02:44;;;;;;;1999.90;999.90;;;-3.30;99.90;;;;;;5108210;28;20835;-66
2023/02/09 08:05:18;;;;;;;1999.90;999.90;;;-3.20;99.90;;;;;;5108990;28;20445;-62
2023/02/09 08:07:45;;;;;;;1999.90;999.90;;;-3.10;99.90;;;;;;5109219;28;20985;-66
2023/02/09 08:10:13;;;;;;;1999.90;999.90;;;-3.00;99.90;;;;;;5112077;28;20433;-64
2023/02/09 08:15:26;;;;;;;1999.90;999.90;;;-2.70;99.90;;;;;;5106694;28;20432;-65
2023/02/09 08:17:57;;;;;;;1999.90;999.90;;;-2.50;99.90;;;;;;5110344;28;20530;-64
2023/02/09 08:20:26;;;;;;;1999.90;999.90;;;-2.40;99.90;;;;;;5110097;28;20487;-65
2023/02/09 08:22:55;;;;;;;1999.90;999.90;;;-2.30;99.90;;;;;;5112238;28;20536;-66
2023/02/09 08:25:24;;;;;;;1999.90;999.90;;;-2.10;99.90;;;;;;5112333;28;20445;-65
2023/02/09 08:27:52;;;;;;;1999.90;999.90;;;-1.80;99.90;;;;;;5112133;28;20468;-66
2023/02/09 08:30:19;;;;;;;1999.90;999.90;;;-1.50;99.90;;;;;;5112541;28;20437;-64
2023/02/09 08:32:46;;;;;;;1999.90;999.90;;;-1.40;99.90;;;;;;5112445;28;20458;-64
2023/02/09 08:35:14;;;;;;;1999.90;999.90;;;-1.20;99.90;;;;;;5111283;28;20502;-66
2023/02/09 08:37:40;;;;;;;1999.90;999.90;;;-1.10;99.90;;;;;;5111902;28;20465;-64
2023/02/09 08:40:08;;;;;;;1999.90;999.90;;;-0.90;99.90;;;;;;5114039;28;20943;-65
2023/02/09 08:42:36;;;;;;;1999.90;999.90;;;-0.80;99.90;;;;;;5111341;28;20449;-65
2023/02/09 08:45:03;;;;;;;1999.90;999.90;;;-0.60;99.90;;;;;;5109857;28;20448;-65
2023/02/09 08:47:32;;;;;;;1999.90;999.90;;;-0.50;99.90;;;;;;5109014;27;20469;-67
2023/02/09 08:49:59;;;;;;;1999.90;999.90;;;-0.30;99.90;;;;;;5103755;28;20465;-66
2023/02/09 08:52:26;;;;;;;1999.90;999.90;;;0.00;99.90;;;;;;5104989;28;20457;-64
2023/02/09 08:54:52;;;;;;;1999.90;999.90;;;0.20;99.90;;;;;;5110390;28;20444;-66
2023/02/09 08:57:19;;;;;;;1999.90;999.90;;;0.40;99.90;;;;;;5111595;28;20469;-66
2023/02/09 08:59:47;;;;;;;1999.90;999.90;;;0.60;99.90;;;;;;5112334;28;20468;-66
2023/02/09 09:02:14;;;;;;;1999.90;999.90;;;0.80;99.90;;;;;;5111734;28;20511;-65
2023/02/09 09:04:41;;;;;;;1999.90;999.90;;;0.90;99.90;;;;;;5110387;28;21092;-65
2023/02/09 09:07:08;;;;;;;1999.90;999.90;;;1.00;99.90;;;;;;5111276;28;20476;-64
2023/02/09 09:09:35;;;;;;;1999.90;999.90;;;1.20;99.90;;;;;;5110989;28;20453;-66
2023/02/09 09:12:02;;;;;;;1999.90;999.90;;;1.40;99.90;;;;;;5111297;28;20448;-65
2023/02/09 09:14:30;;;;;;;1999.90;999.90;;;1.60;99.90;;;;;;5111055;28;20452;-65
2023/02/09 09:16:58;;;;;;;1999.90;999.90;;;1.70;99.90;;;;;;5111688;27;20476;-59
2023/02/09 09:19:25;;;;;;;1999.90;999.90;;;1.90;99.90;;;;;;5110361;28;20438;-65
2023/02/09 09:21:53;;;;;;;1999.90;999.90;;;2.20;99.90;;;;;;5112500;28;20483;-63
2023/02/09 09:24:20;;;;;;;1999.90;999.90;;;2.30;99.90;;;;;;5112515;28;20538;-65
2023/02/09 09:26:47;;;;;;;1999.90;999.90;;;2.50;99.90;;;;;;5110660;28;20552;-69
2023/02/09 09:29:14;;;;;;;1999.90;999.90;;;2.70;99.90;;;;;;5111211;28;20810;-72
2023/02/09 09:31:41;;;;;;;1999.90;999.90;;;2.80;99.90;;;;;;5111767;27;20437;-62
2023/02/09 09:34:09;;;;;;;1999.90;999.90;;;3.00;99.90;;;;;;5112535;28;20446;-66
2023/02/09 09:36:36;;;;;;;1999.90;999.90;;;3.20;99.90;;;;;;5110714;28;20465;-66
2023/02/09 09:39:02;;;;;;;1999.90;999.90;;;3.30;99.90;;;;;;5111150;28;20472;-66
2023/02/09 09:41:32;;;;;;;1999.90;999.90;;;3.50;99.90;;;;;;5111013;28;20481;-68
2023/02/09 09:44:00;;;;;;;1999.90;999.90;;;3.80;99.90;;;;;;5109956;28;20445;-67
2023/02/09 09:46:35;;;;;;;1999.90;999.90;;;3.90;99.90;;;;;;5111146;28;20465;-66
2023/02/09 09:49:03;;;;;;;1999.90;999.90;;;4.30;99.90;;;;;;5111252;28;20448;-67
2023/02/09 09:51:38;;;;;;;1999.90;999.90;;;4.60;99.90;;;;;;5111070;28;20456;-68
2023/02/09 09:54:08;;;;;;;1999.90;999.90;;;5.00;99.90;;;;;;5110678;28;20452;-67
2023/02/09 09:56:35;;;;;;;1999.90;999.90;;;5.10;99.90;;;;;;5110685;28;20465;-67
2023/02/09 09:59:02;;;;;;;1999.90;999.90;;;5.10;99.90;;;;;;5110553;28;20471;-64
2023/02/09 10:01:31;;;;;;;1999.90;999.90;;;5.20;99.90;;;;;;5110700;28;20549;-66
2023/02/09 10:04:02;;;;;;;1999.90;999.90;;;5.20;99.90;;;;;;5110570;28;20445;-64
2023/02/09 10:06:32;;;;;;;1999.90;999.90;;;5.30;99.90;;;;;;5110979;28;20485;-66
2023/02/09 10:09:04;;;;;;;1999.90;999.90;;;5.30;99.90;;;;;;5110915;28;20446;-65
2023/02/09 10:11:38;;;;;;;1999.90;999.90;;;5.60;99.90;;;;;;5116442;27;20448;-67
2023/02/09 10:14:04;;;;;;;1999.90;999.90;;;5.60;99.90;;;;;;5121165;27;20453;-66
2023/02/09 10:16:36;;;;;;;1999.90;999.90;;;5.70;99.90;;;;;;5110353;28;20461;-66
2023/02/09 10:19:06;;;;;;;1999.90;999.90;;;5.80;99.90;;;;;;5110577;28;20463;-65
2023/02/09 10:21:34;;;;;;;1999.90;999.90;;;5.80;99.90;;;;;;5116330;27;20476;-66
2023/02/09 10:24:13;;;;;;;1999.90;999.90;;;6.10;99.90;;;;;;5130602;27;20587;-66
2023/02/09 10:26:41;;;;;;;1999.90;999.90;;;6.70;99.90;;;;;;5130981;27;20472;-66
2023/02/09 10:29:22;;;;;;;1999.90;999.90;;;6.30;98.80;;;;;;5130470;27;20501;-66
2023/02/09 10:31:53;;;;;;;1999.90;999.90;;;5.90;99.40;;;;;;5107578;28;20450;-67
2023/02/09 10:34:23;;;;;;;1999.90;999.90;;;6.30;99.90;;;;;;5109073;28;20441;-65
2023/02/09 10:36:53;;;;;;;1999.90;999.90;;;6.70;99.70;;;;;;5110083;28;20817;-67
2023/02/09 10:39:25;;;;;;;1999.90;999.90;;;7.30;98.40;;;;;;5109721;28;20452;-66
2023/02/09 10:41:55;;;;;;;1999.90;999.90;;;7.50;96.80;;;;;;5108288;28;20477;-66
2023/02/09 10:44:24;;;;;;;1999.90;999.90;;;7.80;96.90;;;;;;5108477;28;20449;-66
2023/02/09 10:47:09;;;;;;;1999.90;999.90;;;8.20;95.40;;;;;;5108718;28;20570;-67
2023/02/09 10:49:38;;;;;;;1999.90;999.90;;;8.40;95.40;;;;;;5105108;28;20962;-65
2023/02/09 10:52:16;;;;;;;1999.90;999.90;;;7.80;94.30;;;;;;5103455;28;20456;-68
2023/02/09 10:54:49;;;;;;;1999.90;999.90;;;7.40;96.00;;;;;;5102842;28;20449;-67
2023/02/09 10:57:21;;;;;;;1999.90;999.90;;;8.00;95.70;;;;;;5108632;28;20461;-66
2023/02/09 10:59:52;;;;;;;1999.90;999.90;;;8.90;95.20;;;;;;5104161;28;20461;-65
2023/02/09 11:02:34;;;;;;;1999.90;999.90;;;9.60;93.20;;;;;;5107478;28;21669;-66
2023/02/09 11:05:01;;;;;;;1999.90;999.90;;;10.20;91.90;;;;;;5105490;28;20479;-67
2023/02/09 11:07:33;;;;;;;1999.90;999.90;;;10.50;90.20;;;;;;5108745;28;20852;-66
2023/02/09 11:10:04;;;;;;;1999.90;999.90;;;10.60;90.40;;;;;;5103933;28;20465;-66
2023/02/09 11:12:30;;;;;;;1999.90;999.90;;;10.60;90.10;;;;;;5106124;28;20441;-67
2023/02/09 11:14:57;;;;;;;1999.90;999.90;;;10.80;90.10;;;;;;5108221;28;20434;-66
2023/02/09 11:17:26;;;;;;;1999.90;999.90;;;10.70;87.90;;;;;;5108026;28;20465;-68
2023/02/09 11:20:19;;;;;;;1999.90;999.90;;;11.30;88.00;;;;;;5102999;28;20488;-65
2023/02/09 11:23:09;;;;;;;1999.90;999.90;;;10.70;85.10;;;;;;5103706;28;20473;-67
2023/02/09 11:25:45;;;;;;;1999.90;999.90;;;10.90;85.90;;;;;;5106060;28;20459;-67
2023/02/09 11:28:37;;;;;;;1999.90;999.90;;;11.20;85.00;;;;;;5102536;28;20464;-66
2023/02/09 11:31:41;;;;;;;1999.90;999.90;;;11.50;85.40;;;;;;5105369;28;20495;-67
2023/02/09 11:34:20;;;;;;;1999.90;999.90;;;11.80;82.50;;;;;;5104663;28;20926;-66
2023/02/09 11:36:52;;;;;;;1999.90;999.90;;;11.90;81.30;;;;;;5099024;28;20473;-69
2023/02/09 11:39:27;;;;;;;1999.90;999.90;;;11.80;80.70;;;;;;5107017;28;21014;-66
2023/02/09 11:44:51;;;;;;;1999.90;999.90;;;9.90;86.00;;;;;;5109320;28;20490;-67
2023/02/09 11:47:26;;;;;;;1999.90;999.90;;;8.80;88.20;;;;;;5110478;27;20452;-66
2023/02/09 11:49:56;;;;;;;1999.90;999.90;;;8.40;90.10;;;;;;5110550;28;20463;-68
2023/02/09 11:52:29;;;;;;;1999.90;999.90;;;8.30;90.50;;;;;;5110079;28;20437;-68
2023/02/09 11:55:01;;;;;;;1999.90;999.90;;;7.90;90.20;;;;;;5108762;27;20449;-67
2023/02/09 11:57:34;;;;;;;1999.90;999.90;;;7.40;91.30;;;;;;5111221;28;20482;-67
2023/02/09 12:00:04;;;;;;;1999.90;999.90;;;7.10;92.60;;;;;;5109078;28;20469;-66
2023/02/09 12:02:44;;;;;;;1999.90;999.90;;;6.70;93.30;;;;;;5104707;28;20491;-65
2023/02/09 12:05:16;;;;;;;1999.90;999.90;;;6.40;94.30;;;;;;5111427;28;20437;-66
2023/02/09 12:07:49;;;;;;;1999.90;999.90;;;6.00;94.40;;;;;;5112564;28;20453;-66
2023/02/09 12:10:25;;;;;;;1999.90;999.90;;;5.90;95.30;;;;;;5113015;28;20444;-67
2023/02/09 12:12:58;;;;;;;1999.90;999.90;;;5.70;95.90;;;;;;5105339;28;20536;-66
2023/02/09 12:15:39;;;;;;;1999.90;999.90;;;5.60;96.40;;;;;;5112553;28;20471;-68
2023/02/09 12:18:12;;;;;;;1999.90;999.90;;;5.70;96.30;;;;;;5112753;28;20990;-66
2023/02/09 12:20:51;;;;;;;1999.90;999.90;;;5.40;96.80;;;;;;5112562;28;20444;-67
2023/02/09 12:23:21;;;;;;;1999.90;999.90;;;5.50;97.40;;;;;;5110782;28;20481;-67
2023/02/09 12:25:54;;;;;;;1999.90;999.90;;;5.60;96.90;;;;;;5104494;28;20464;-67